createdAt,value
2018-09-24T00:02:07.967Z,95603.59
2018-09-24T00:04:37.835Z,95607.83
2018-09-24T00:07:07.689Z,95594.79
2018-09-24T00:09:37.665Z,95597.05
2018-09-24T00:12:07.598Z,95582.48
2018-09-24T00:14:37.559Z,95587.90
2018-09-24T00:17:07.386Z,95578.66
2018-09-24T00:19:37.218Z,95576.58
2018-09-24T00:22:07.045Z,95577.89
2018-09-24T00:24:36.862Z,95576.73
2018-09-24T00:27:06.784Z,95572.70
2018-09-24T00:29:37.141Z,95578.36
2018-09-24T00:32:06.868Z,95571.91
2018-09-24T00:34:36.766Z,95574.41
2018-09-24T00:37:06.588Z,95562.42
2018-09-24T00:39:36.357Z,95564.01
2018-09-24T00:42:06.315Z,95562.66
2018-09-24T00:44:36.223Z,95562.52
2018-09-24T00:47:06.166Z,95564.31
2018-09-24T00:49:36.589Z,95563.92
2018-09-24T00:52:06.380Z,95560.77
2018-09-24T00:54:36.226Z,95559.41
2018-09-24T00:57:06.077Z,95563.77
2018-09-24T00:59:35.877Z,95558.03
2018-09-24T01:02:05.722Z,95553.72
2018-09-24T01:04:36.168Z,95552.20
2018-09-24T01:07:05.965Z,95550.27
2018-09-24T01:09:35.699Z,95551.89
2018-09-24T01:12:07.252Z,95548.10
2018-09-24T01:14:37.668Z,95550.28
2018-09-24T01:17:07.504Z,95549.19
2018-09-24T01:19:37.375Z,95543.19
2018-09-24T01:22:07.388Z,95536.95
2018-09-24T01:24:37.381Z,95489.91
2018-09-24T01:27:07.363Z,95532.55
2018-09-24T01:29:37.121Z,95532.08
2018-09-24T01:32:07.402Z,95525.26
2018-09-24T01:34:37.999Z,95529.63
2018-09-24T01:37:07.881Z,95527.97
2018-09-24T01:39:37.666Z,95521.71
2018-09-24T01:42:07.455Z,95525.12
2018-09-24T01:44:37.239Z,95521.77
2018-09-24T01:47:07.422Z,95520.13
2018-09-24T01:49:37.213Z,95522.98
2018-09-24T01:52:07.182Z,95517.38
2018-09-24T01:54:36.957Z,95513.66
2018-09-24T01:57:13.734Z,95514.50
2018-09-24T01:59:49.643Z,95510.03
2018-09-24T02:02:19.642Z,95513.69
2018-09-24T02:04:50.684Z,95512.64
2018-09-24T02:07:20.927Z,95512.02
2018-09-24T02:09:50.750Z,95511.89
2018-09-24T02:12:20.627Z,95515.71
2018-09-24T02:14:51.210Z,95501.45
2018-09-24T02:17:23.086Z,95506.81
2018-09-24T02:19:53.312Z,95503.64
2018-09-24T02:22:30.315Z,95500.33
2018-09-24T02:25:01.230Z,95505.45
2018-09-24T02:27:31.222Z,95500.18
2018-09-24T02:30:01.171Z,95504.13
2018-09-24T02:32:31.384Z,95498.98
2018-09-24T02:35:01.644Z,95500.08
2018-09-24T02:37:31.539Z,95495.05
2018-09-24T02:40:01.515Z,95481.55
2018-09-24T02:42:31.241Z,95491.48
2018-09-24T02:45:01.164Z,95490.70
2018-09-24T02:47:33.436Z,95487.86
2018-09-24T02:50:04.184Z,95487.89
2018-09-24T02:52:34.123Z,95484.30
2018-09-24T02:55:09.336Z,95484.15
2018-09-24T02:57:39.224Z,95480.76
2018-09-24T03:00:09.028Z,95476.27
2018-09-24T03:02:39.401Z,95475.91
2018-09-24T03:05:09.750Z,95476.80
2018-09-24T03:07:39.576Z,95475.30
2018-09-24T03:10:09.341Z,95460.45
2018-09-24T03:12:39.700Z,95463.69
2018-09-24T03:15:09.463Z,95461.09
2018-09-24T03:17:39.420Z,95459.27
2018-09-24T03:20:09.245Z,95462.86
2018-09-24T03:22:39.177Z,95463.27
2018-09-24T03:25:09.302Z,95468.69
2018-09-24T03:27:39.089Z,95458.89
2018-09-24T03:30:08.901Z,95456.57
2018-09-24T03:32:42.162Z,95454.44
2018-09-24T03:35:12.399Z,95453.53
2018-09-24T03:37:42.188Z,95454.57
2018-09-24T03:40:12.103Z,95457.53
2018-09-24T03:42:42.020Z,95446.16
2018-09-24T03:45:11.822Z,95446.50
2018-09-24T03:47:41.691Z,95446.92
2018-09-24T03:50:11.418Z,95446.02
2018-09-24T03:52:41.313Z,95440.41
2018-09-24T03:55:11.090Z,95450.81
2018-09-24T03:57:41.272Z,95436.48
2018-09-24T04:00:11.131Z,95445.46
2018-09-24T04:02:41.733Z,95445.94
2018-09-24T04:05:17.461Z,95444.59
2018-09-24T04:07:52.231Z,95450.03
2018-09-24T04:10:27.144Z,95440.94
2018-09-24T04:13:02.203Z,95444.31
2018-09-24T04:15:37.448Z,95451.56
2018-09-24T04:18:12.473Z,95443.62
2018-09-24T04:20:47.426Z,95440.69
2018-09-24T04:23:22.269Z,95447.14
2018-09-24T04:25:57.765Z,95447.17
2018-09-24T04:28:32.739Z,95445.48
2018-09-24T04:31:07.676Z,95446.00
2018-09-24T04:33:42.823Z,95450.67
2018-09-24T04:36:18.330Z,95448.63
2018-09-24T04:38:53.156Z,95439.80
2018-09-24T04:41:28.044Z,95440.19
2018-09-24T04:44:02.747Z,95436.89
2018-09-24T04:46:37.766Z,95430.21
2018-09-24T04:49:12.626Z,95434.47
2018-09-24T04:51:47.541Z,95433.13
2018-09-24T04:54:22.563Z,95428.16
2018-09-24T04:56:58.231Z,95427.66
2018-09-24T04:59:32.972Z,95418.84
2018-09-24T05:02:07.852Z,95421.09
2018-09-24T05:04:42.847Z,95431.22
2018-09-24T05:07:17.565Z,95429.46
2018-09-24T05:09:52.447Z,95428.30
2018-09-24T05:12:27.118Z,95425.12
2018-09-24T05:15:01.876Z,95428.13
2018-09-24T05:17:37.509Z,95423.50
2018-09-24T05:20:12.248Z,95424.69
2018-09-24T05:22:47.073Z,95421.73
2018-09-24T05:25:22.024Z,95423.70
2018-09-24T05:27:57.591Z,95411.98
2018-09-24T05:30:32.425Z,95410.06
2018-09-24T05:33:07.404Z,95411.78
2018-09-24T05:35:42.279Z,95415.02
2018-09-24T05:38:17.346Z,95404.84
2018-09-24T05:40:52.106Z,95402.01
2018-09-24T05:43:27.078Z,95410.08
2018-09-24T05:46:02.546Z,95404.59
2018-09-24T05:48:37.395Z,95406.33
2018-09-24T05:51:12.939Z,95407.27
2018-09-24T05:53:47.626Z,95403.41
2018-09-24T05:56:22.406Z,95403.91
2018-09-24T05:58:58.100Z,95400.07
2018-09-24T06:01:33.060Z,95397.77
2018-09-24T06:04:07.891Z,95396.86
2018-09-24T06:06:42.823Z,95395.72
2018-09-24T06:09:17.923Z,95392.53
2018-09-24T06:11:53.002Z,95396.28
2018-09-24T06:14:27.660Z,95388.44
2018-09-24T06:17:02.634Z,95393.97
2018-09-24T06:19:37.660Z,95395.67
2018-09-24T06:22:12.545Z,95377.66
2018-09-24T06:24:47.650Z,95380.34
2018-09-24T06:27:22.513Z,95372.50
2018-09-24T06:29:57.542Z,95372.58
2018-09-24T06:32:32.652Z,95379.56
2018-09-24T06:35:07.531Z,95370.83
2018-09-24T06:37:42.270Z,95371.75
2018-09-24T06:40:18.230Z,95377.05
2018-09-24T06:42:53.158Z,95370.95
2018-09-24T06:45:28.035Z,95366.73
2018-09-24T06:48:02.930Z,95362.38
2018-09-24T06:50:38.869Z,95357.83
2018-09-24T06:53:13.692Z,95351.92
2018-09-24T06:55:48.566Z,95350.45
2018-09-24T06:58:23.435Z,95340.22
2018-09-24T07:00:58.896Z,95336.45
2018-09-24T07:03:33.839Z,95337.67
2018-09-24T07:06:08.796Z,95336.47
2018-09-24T07:08:43.697Z,95333.30
2018-09-24T07:11:19.613Z,95326.44
2018-09-24T07:13:54.446Z,95322.84
2018-09-24T07:16:29.263Z,95323.64
2018-09-24T07:19:04.031Z,95322.49
2018-09-24T07:21:39.384Z,95326.35
2018-09-24T07:24:14.166Z,95325.34
2018-09-24T07:26:49.009Z,95329.30
2018-09-24T07:29:23.921Z,95321.61
2018-09-24T07:31:59.527Z,95318.04
2018-09-24T07:34:34.316Z,95314.03
2018-09-24T07:37:09.383Z,95316.56
2018-09-24T07:39:44.504Z,95319.39
2018-09-24T07:42:20.033Z,95310.40
2018-09-24T07:44:54.910Z,95305.27
2018-09-24T07:47:29.592Z,95292.41
2018-09-24T07:50:04.462Z,95292.16
2018-09-24T07:52:40.346Z,95285.48
2018-09-24T07:55:15.142Z,95278.76
2018-09-24T07:57:52.329Z,95284.35
2018-09-24T08:00:27.238Z,95281.95
2018-09-24T08:03:03.306Z,95281.95
2018-09-24T08:05:38.150Z,95276.60
2018-09-24T08:08:12.824Z,95269.63
2018-09-24T08:10:47.662Z,95264.23
2018-09-24T08:13:23.217Z,95269.33
2018-09-24T08:15:58.030Z,95262.11
2018-09-24T08:18:32.853Z,95265.44
2018-09-24T08:21:07.668Z,95255.23
2018-09-24T08:23:42.861Z,95255.11
2018-09-24T08:26:17.738Z,95263.90
2018-09-24T08:28:52.519Z,95255.45
2018-09-24T08:31:27.301Z,95250.19
2018-09-24T08:34:02.826Z,95243.95
2018-09-24T08:36:37.661Z,95244.06
2018-09-24T08:39:13.760Z,95239.16
2018-09-24T08:41:48.964Z,95224.25
2018-09-24T08:44:24.727Z,95230.84
2018-09-24T08:46:59.561Z,95216.28
2018-09-24T08:49:34.418Z,95213.16
2018-09-24T08:52:09.193Z,95211.16
2018-09-24T08:54:44.433Z,95201.00
2018-09-24T08:57:19.411Z,95190.08
2018-09-24T08:59:54.284Z,95179.00
2018-09-24T09:02:29.138Z,95178.11
2018-09-24T09:05:04.748Z,95170.44
2018-09-24T09:07:39.644Z,95176.57
2018-09-24T09:10:14.456Z,95160.06
2018-09-24T09:12:49.483Z,95162.80
2018-09-24T09:15:24.990Z,95155.78
2018-09-24T09:18:00.128Z,95152.16
2018-09-24T09:20:34.909Z,95142.35
2018-09-24T09:23:10.292Z,95142.38
2018-09-24T09:25:45.159Z,95142.83
2018-09-24T09:28:20.068Z,95118.56
2018-09-24T09:30:55.033Z,95125.77
2018-09-24T09:33:30.012Z,95122.55
2018-09-24T09:36:04.786Z,95101.08
2018-09-24T09:38:39.538Z,95100.63
2018-09-24T09:41:14.439Z,95106.89
2018-09-24T09:43:49.354Z,95100.56
2018-09-24T09:46:27.228Z,95106.98
2018-09-24T09:49:02.019Z,95113.70
2018-09-24T09:51:36.883Z,95098.66
2018-09-24T09:54:11.761Z,95092.17
2018-09-24T09:56:46.538Z,95082.94
2018-09-24T09:59:21.691Z,95085.59
2018-09-24T10:01:56.567Z,95073.59
2018-09-24T10:04:31.283Z,95067.55
2018-09-24T10:07:06.215Z,95059.38
2018-09-24T10:09:41.185Z,95037.22
2018-09-24T10:12:16.151Z,95064.59
2018-09-24T10:14:50.798Z,95050.28
2018-09-24T10:17:26.642Z,95029.41
2018-09-24T10:20:01.701Z,95043.53
2018-09-24T10:22:36.672Z,95036.02
2018-09-24T10:25:11.703Z,95031.87
2018-09-24T10:27:46.982Z,95027.84
2018-09-24T10:30:21.777Z,95010.36
2018-09-24T10:32:56.777Z,95023.82
2018-09-24T10:35:31.653Z,95007.91
2018-09-24T10:38:07.363Z,95007.38
2018-09-24T10:40:42.179Z,94996.60
2018-09-24T10:43:19.315Z,94989.52
2018-09-24T10:45:54.603Z,94983.42
2018-09-24T10:48:30.318Z,94994.05
2018-09-24T10:51:05.314Z,94966.83
2018-09-24T10:53:40.216Z,94982.80
2018-09-24T10:56:15.185Z,94979.31
2018-09-24T10:58:51.129Z,94977.24
2018-09-24T11:01:25.970Z,94966.34
2018-09-24T11:04:01.944Z,94970.71
2018-09-24T11:06:36.912Z,94954.02
2018-09-24T11:09:14.150Z,94957.83
2018-09-24T11:11:49.169Z,94957.25
2018-09-24T11:14:25.101Z,94953.50
2018-09-24T11:17:00.645Z,94943.47
2018-09-24T11:19:35.765Z,94948.98
2018-09-24T11:22:11.598Z,94948.56
2018-09-24T11:24:46.598Z,94932.17
2018-09-24T11:27:21.630Z,94929.70
2018-09-24T11:29:56.696Z,94932.95
2018-09-24T11:32:31.392Z,94942.23
2018-09-24T11:35:06.792Z,94923.28
2018-09-24T11:37:42.321Z,94928.41
2018-09-24T11:40:17.881Z,94921.52
2018-09-24T11:42:52.636Z,94924.92
2018-09-24T11:45:27.642Z,94920.31
2018-09-24T11:48:02.653Z,94920.39
2018-09-24T11:50:38.731Z,94918.22
2018-09-24T11:53:13.595Z,94916.27
2018-09-24T11:55:48.509Z,94914.45
2018-09-24T11:58:23.545Z,94911.92
2018-09-24T12:00:58.293Z,94911.10
2018-09-24T12:03:33.187Z,94902.19
2018-09-24T12:06:08.182Z,94907.26
2018-09-24T12:08:43.106Z,94903.75
2018-09-24T12:11:18.645Z,94898.20
2018-09-24T12:13:53.466Z,94896.20
2018-09-24T12:16:28.253Z,94887.56
2018-09-24T12:19:03.217Z,94899.54
2018-09-24T12:21:38.700Z,94898.03
2018-09-24T12:24:13.708Z,94895.69
2018-09-24T12:26:48.379Z,94889.61
2018-09-24T12:29:23.324Z,94895.06
2018-09-24T12:31:59.230Z,94880.88
2018-09-24T12:34:34.187Z,94894.14
2018-09-24T12:37:09.314Z,94889.50
2018-09-24T12:39:44.262Z,94887.66
2018-09-24T12:42:19.846Z,94888.53
2018-09-24T12:44:55.007Z,94889.31
2018-09-24T12:47:36.954Z,94868.29
2018-09-24T12:50:12.169Z,94864.75
2018-09-24T12:52:47.049Z,94870.01
2018-09-24T12:55:22.923Z,94859.66
2018-09-24T12:57:57.796Z,94861.83
2018-09-24T13:00:32.522Z,94850.39
2018-09-24T13:03:10.314Z,94848.34
2018-09-24T13:05:45.118Z,94838.50
2018-09-24T13:08:20.256Z,94837.70
2018-09-24T13:10:55.955Z,94849.97
2018-09-24T13:13:30.928Z,94846.76
2018-09-24T13:16:05.826Z,94844.80
2018-09-24T13:18:40.882Z,94834.09
2018-09-24T13:21:16.503Z,94836.23
2018-09-24T13:23:51.161Z,94818.27
2018-09-24T13:26:26.150Z,94822.25
2018-09-24T13:29:01.032Z,94821.05
2018-09-24T13:31:36.742Z,94819.80
2018-09-24T13:34:11.657Z,94811.41
2018-09-24T13:36:46.683Z,94812.80
2018-09-24T13:39:21.600Z,94805.56
2018-09-24T13:41:57.013Z,94803.03
2018-09-24T13:44:31.588Z,94802.68
2018-09-24T13:47:06.618Z,94803.01
2018-09-24T13:49:41.403Z,94796.70
2018-09-24T13:52:17.267Z,94796.34
2018-09-24T13:54:52.047Z,94800.38
2018-09-24T13:57:26.969Z,94798.59
2018-09-24T14:00:01.879Z,94789.38
2018-09-24T14:02:37.618Z,94794.22
2018-09-24T14:05:12.371Z,94791.39
2018-09-24T14:07:47.269Z,94788.34
2018-09-24T14:10:22.175Z,94789.02
2018-09-24T14:12:57.722Z,94786.84
2018-09-24T14:15:32.610Z,94791.56
2018-09-24T14:18:07.569Z,94783.66
2018-09-24T14:20:42.315Z,94783.54
2018-09-24T14:23:18.538Z,94786.00
2018-09-24T14:25:53.338Z,94780.58
2018-09-24T14:28:28.105Z,94780.80
2018-09-24T14:31:02.992Z,94782.65
2018-09-24T14:33:39.191Z,94784.10
2018-09-24T14:36:14.329Z,94778.64
2018-09-24T14:38:49.227Z,94783.69
2018-09-24T14:41:23.898Z,94786.33
2018-09-24T14:43:59.822Z,94789.67
2018-09-24T14:46:34.543Z,94782.81
2018-09-24T14:49:09.224Z,94785.59
2018-09-24T14:51:44.117Z,94790.98
2018-09-24T14:54:19.304Z,94789.21
2018-09-24T14:56:54.075Z,94797.39
2018-09-24T14:59:28.964Z,94788.19
2018-09-24T15:02:03.913Z,94793.98
2018-09-24T15:04:39.211Z,94786.75
2018-09-24T15:07:14.102Z,94785.96
2018-09-24T15:09:48.922Z,94789.69
2018-09-24T15:12:23.652Z,94798.59
2018-09-24T15:14:59.009Z,94797.17
2018-09-24T15:17:33.826Z,94804.08
2018-09-24T15:20:08.877Z,94805.17
2018-09-24T15:22:43.740Z,94801.22
2018-09-24T15:25:18.916Z,94807.41
2018-09-24T15:27:53.746Z,94808.27
2018-09-24T15:30:28.694Z,94815.25
2018-09-24T15:33:03.589Z,94809.08
2018-09-24T15:35:38.442Z,94815.92
2018-09-24T15:38:13.152Z,94818.84
2018-09-24T15:40:48.059Z,94817.28
2018-09-24T15:43:22.941Z,94826.89
2018-09-24T15:45:58.625Z,94812.17
2018-09-24T15:48:33.531Z,94818.32
2018-09-24T15:51:08.477Z,94822.30
2018-09-24T15:53:43.403Z,94823.89
2018-09-24T15:56:18.985Z,94592.37
2018-09-24T15:58:53.670Z,94816.57
2018-09-24T16:01:28.641Z,94834.52
2018-09-24T16:04:03.591Z,94836.33
2018-09-24T16:06:38.726Z,94835.17
2018-09-24T16:09:14.892Z,94829.20
2018-09-24T16:11:49.821Z,94834.12
2018-09-24T16:14:24.693Z,94845.12
2018-09-24T16:16:59.555Z,94838.84
2018-09-24T16:19:34.299Z,94858.17
2018-09-24T16:22:09.284Z,94847.16
2018-09-24T16:24:44.111Z,94856.32
2018-09-24T16:27:20.913Z,94852.81
2018-09-24T16:29:55.768Z,94858.68
2018-09-24T16:32:30.648Z,94868.98
2018-09-24T16:35:05.474Z,94874.41
2018-09-24T16:37:41.043Z,94893.27
2018-09-24T16:40:16.004Z,94902.44
2018-09-24T16:42:50.961Z,94910.20
2018-09-24T16:45:25.829Z,94925.77
2018-09-24T16:48:00.940Z,94937.30
2018-09-24T16:50:35.750Z,94953.34
2018-09-24T16:53:11.018Z,94965.55
2018-09-24T16:55:46.081Z,94982.48
2018-09-24T16:58:21.825Z,94997.42
2018-09-24T17:00:56.875Z,95006.16
2018-09-24T17:03:31.766Z,95017.56
2018-09-24T17:06:06.750Z,95026.41
2018-09-24T17:08:41.723Z,95029.31
2018-09-24T17:11:18.114Z,95019.50
2018-09-24T17:13:53.142Z,95017.01
2018-09-24T17:16:28.058Z,95031.13
2018-09-24T17:19:02.954Z,95046.22
2018-09-24T17:21:37.925Z,95066.73
2018-09-24T17:24:12.824Z,95080.49
2018-09-24T17:26:47.529Z,95082.52
2018-09-24T17:29:23.195Z,95097.38
2018-09-24T17:31:58.261Z,95124.38
2018-09-24T17:34:33.229Z,95111.79
2018-09-24T17:37:08.084Z,95096.09
2018-09-24T17:39:44.095Z,95087.20
2018-09-24T17:42:18.903Z,95086.40
2018-09-24T17:44:53.838Z,95079.35
2018-09-24T17:47:28.565Z,95082.46
2018-09-24T17:50:03.847Z,95084.13
2018-09-24T17:52:38.682Z,95090.48
2018-09-24T17:55:13.590Z,95106.84
2018-09-24T17:57:48.289Z,95113.88
2018-09-24T18:00:23.887Z,95122.19
2018-09-24T18:02:58.512Z,95129.83
2018-09-24T18:05:33.297Z,95144.91
2018-09-24T18:08:08.187Z,94913.23
2018-09-24T18:10:43.624Z,95154.53
2018-09-24T18:13:18.317Z,95149.70
2018-09-24T18:15:53.184Z,95147.28
2018-09-24T18:18:28.021Z,95155.17
2018-09-24T18:21:03.321Z,95174.52
2018-09-24T18:23:38.089Z,95180.16
2018-09-24T18:26:12.846Z,95181.81
2018-09-24T18:28:47.673Z,95194.32
2018-09-24T18:31:23.274Z,95211.45
2018-09-24T18:33:59.073Z,95222.93
2018-09-24T18:36:34.001Z,95227.45
2018-09-24T18:39:08.872Z,95249.47
2018-09-24T18:41:44.370Z,95252.02
2018-09-24T18:44:19.307Z,95261.88
2018-09-24T18:46:54.070Z,95274.38
2018-09-24T18:49:28.956Z,95274.83
2018-09-24T18:52:03.979Z,95285.95
2018-09-24T18:54:38.774Z,95283.45
2018-09-24T18:57:13.771Z,95295.32
2018-09-24T18:59:48.614Z,95301.03
2018-09-24T19:02:24.499Z,95303.09
2018-09-24T19:04:59.293Z,95313.64
2018-09-24T19:07:34.205Z,95306.39
2018-09-24T19:10:09.015Z,95313.70
2018-09-24T19:12:45.049Z,95312.80
2018-09-24T19:15:19.864Z,95310.39
2018-09-24T19:17:54.704Z,95321.96
2018-09-24T19:20:29.640Z,95327.22
2018-09-24T19:23:04.986Z,95330.02
2018-09-24T19:25:39.970Z,95331.95
2018-09-24T19:28:14.895Z,95329.56
2018-09-24T19:30:49.761Z,95337.61
2018-09-24T19:33:26.019Z,95338.87
2018-09-24T19:36:00.992Z,95346.78
2018-09-24T19:38:35.971Z,95349.47
2018-09-24T19:41:11.526Z,95351.97
2018-09-24T19:43:47.218Z,95364.92
2018-09-24T19:46:22.001Z,95359.89
2018-09-24T19:48:56.853Z,95355.50
2018-09-24T19:51:32.119Z,95367.93
2018-09-24T19:54:07.894Z,95368.12
2018-09-24T19:56:43.375Z,95370.97
2018-09-24T19:59:19.142Z,95366.39
2018-09-24T20:01:54.085Z,95367.30
2018-09-24T20:04:30.016Z,95367.98
2018-09-24T20:07:04.978Z,95375.14
2018-09-24T20:09:40.016Z,95379.03
2018-09-24T20:12:15.031Z,95385.11
2018-09-24T20:14:51.854Z,95384.06
2018-09-24T20:17:28.007Z,95388.31
2018-09-24T20:20:03.883Z,95403.63
2018-09-24T20:22:38.862Z,95402.52
2018-09-24T20:25:15.731Z,95398.84
2018-09-24T20:27:51.026Z,95402.28
2018-09-24T20:30:26.599Z,95400.44
2018-09-24T20:33:01.653Z,95404.61
2018-09-24T20:35:37.866Z,95408.48
2018-09-24T20:38:12.742Z,95404.51
2018-09-24T20:40:48.422Z,95411.69
2018-09-24T20:43:23.479Z,95418.23
2018-09-24T20:45:59.357Z,95423.33
2018-09-24T20:48:35.482Z,95431.95
2018-09-24T20:51:11.070Z,95428.09
2018-09-24T20:53:46.089Z,95429.47
2018-09-24T20:56:21.373Z,95427.89
2018-09-24T20:58:56.252Z,95434.73
2018-09-24T21:01:31.153Z,95436.19
2018-09-24T21:04:06.006Z,95437.49
2018-09-24T21:06:41.584Z,95445.09
2018-09-24T21:09:16.572Z,95449.25
2018-09-24T21:11:51.731Z,95447.95
2018-09-24T21:14:26.876Z,95445.31
2018-09-24T21:17:02.038Z,95448.66
2018-09-24T21:19:36.955Z,95452.20
2018-09-24T21:22:11.940Z,95450.23
2018-09-24T21:24:46.806Z,95444.16
2018-09-24T21:27:22.637Z,95438.88
2018-09-24T21:29:57.547Z,95441.91
2018-09-24T21:32:32.501Z,95447.09
2018-09-24T21:35:07.553Z,95453.50
2018-09-24T21:37:43.429Z,95450.42
2018-09-24T21:40:18.285Z,95440.02
2018-09-24T21:42:53.240Z,95441.61
2018-09-24T21:45:28.213Z,95447.66
2018-09-24T21:48:03.024Z,95444.08
2018-09-24T21:50:37.928Z,95447.12
2018-09-24T21:53:12.967Z,95456.66
2018-09-24T21:55:47.898Z,95458.66
2018-09-24T21:58:22.855Z,95458.69
2018-09-24T22:00:57.658Z,95453.34
2018-09-24T22:03:32.645Z,95470.63
2018-09-24T22:06:07.634Z,95473.11
2018-09-24T22:08:43.116Z,95475.98
2018-09-24T22:11:18.000Z,95469.08
2018-09-24T22:13:52.837Z,95469.72
2018-09-24T22:16:27.835Z,95476.48
2018-09-24T22:19:03.570Z,95476.34
2018-09-24T22:21:38.451Z,95479.89
2018-09-24T22:24:13.385Z,95478.55
2018-09-24T22:26:48.463Z,95489.83
2018-09-24T22:29:23.821Z,95499.11
2018-09-24T22:31:58.656Z,95503.61
2018-09-24T22:34:33.741Z,95505.27
2018-09-24T22:37:08.770Z,95502.66
2018-09-24T22:39:44.153Z,95511.37
2018-09-24T22:42:18.981Z,95505.34
2018-09-24T22:44:53.892Z,95510.16
2018-09-24T22:47:28.807Z,95519.89
2018-09-24T22:50:04.070Z,95518.66
2018-09-24T22:52:38.861Z,95522.75
2018-09-24T22:55:13.478Z,95525.75
2018-09-24T22:57:48.373Z,95532.06
2018-09-24T23:00:23.858Z,95530.80
2018-09-24T23:02:58.810Z,95535.11
2018-09-24T23:05:33.601Z,95538.38
2018-09-24T23:08:08.599Z,95542.76
2018-09-24T23:10:44.036Z,95547.03
2018-09-24T23:13:18.873Z,95555.91
2018-09-24T23:15:53.889Z,95553.02
2018-09-24T23:18:28.769Z,95562.16
2018-09-24T23:21:04.097Z,95574.63
2018-09-24T23:23:38.952Z,95580.08
2018-09-24T23:26:13.911Z,95568.41
2018-09-24T23:28:48.809Z,95562.78
2018-09-24T23:31:23.870Z,95568.93
2018-09-24T23:33:58.874Z,95569.92
2018-09-24T23:36:33.775Z,95571.19
2018-09-24T23:39:08.656Z,95569.83
2018-09-24T23:41:43.432Z,95576.41
2018-09-24T23:44:18.283Z,95583.33
2018-09-24T23:46:53.130Z,95594.74
2018-09-24T23:49:27.844Z,95610.15
2018-09-24T23:52:03.301Z,95619.50
2018-09-24T23:54:38.124Z,95605.77
2018-09-24T23:57:12.972Z,95611.34
2018-09-24T23:59:47.791Z,95605.85
